Time;durP1;ratioP1;P1;durP2;ratioP2;P2;SDS_P1;SDS_P2;PMS_P1;PMS_P2;Temp;Humidity;BMP_temperature;BMP_pressure;BME280_temperature;BME280_humidity;BME280_pressure;Samples;Min_cycle;Max_cycle;Signal;HPM_P1;HPM_P2
2023/04/22 00:01:18;;;;;;;7.18;2.83;;;;;;;9.41;100.00;97959.22;5138264;28;20047;-61
2023/04/22 00:03:44;;;;;;;5.68;2.63;;;;;;;9.28;100.00;97936.13;5137989;28;20074;-63
2023/04/22 00:06:10;;;;;;;5.90;3.08;;;;;;;9.19;100.00;97936.47;5137823;27;20137;-62
2023/04/22 00:08:36;;;;;;;4.25;2.08;;;;;;;9.18;100.00;97930.22;5137953;28;20054;-62
2023/04/22 00:11:02;;;;;;;4.95;2.80;;;;;;;9.15;100.00;97927.47;5137676;27;20130;-65
2023/04/22 00:13:28;;;;;;;6.45;2.92;;;;;;;9.10;100.00;97922.38;5136920;27;20051;-64
2023/04/22 00:15:54;;;;;;;9.65;2.88;;;;;;;9.09;100.00;97913.38;5137693;28;20324;-63
2023/04/22 00:18:20;;;;;;;3.63;2.33;;;;;;;9.10;100.00;97908.72;5137869;28;20047;-62
2023/04/22 00:20:47;;;;;;;8.80;2.75;;;;;;;9.06;100.00;97918.84;5137576;28;20340;-64
2023/04/22 00:23:13;;;;;;;4.25;2.55;;;;;;;8.98;100.00;97915.31;5137560;27;20142;-63
2023/04/22 00:25:39;;;;;;;7.30;2.47;;;;;;;9.02;100.00;97907.13;5137508;27;20399;-64
2023/04/22 00:28:05;;;;;;;4.53;2.65;;;;;;;8.95;100.00;97903.19;5137410;28;20146;-62
2023/04/22 00:30:31;;;;;;;3.92;2.58;;;;;;;8.91;100.00;97904.34;5137301;28;20336;-65
2023/04/22 00:32:57;;;;;;;7.63;2.63;;;;;;;8.87;100.00;97896.13;5137585;28;20043;-64
2023/04/22 00:35:23;;;;;;;4.22;2.45;;;;;;;8.84;100.00;97898.84;5137524;27;20131;-63
2023/04/22 00:37:50;;;;;;;6.25;2.53;;;;;;;8.85;100.00;97898.44;5137411;28;20417;-62
2023/04/22 00:40:16;;;;;;;5.57;2.60;;;;;;;8.82;100.00;97896.50;5137536;28;20138;-61
2023/04/22 00:42:43;;;;;;;5.88;2.58;;;;;;;8.85;100.00;97900.41;5137521;28;20504;-62
2023/04/22 00:45:11;;;;;;;8.43;2.47;;;;;;;8.81;100.00;97896.88;5137726;28;20051;-64
2023/04/22 00:47:37;;;;;;;6.68;2.58;;;;;;;8.69;100.00;97892.53;5137308;28;20059;-62
2023/04/22 00:50:03;;;;;;;6.68;2.75;;;;;;;8.68;100.00;97888.22;5137251;28;20067;-61
2023/04/22 00:52:29;;;;;;;4.93;2.30;;;;;;;8.63;100.00;97888.59;5137174;28;20103;-65
2023/04/22 00:54:56;;;;;;;4.28;2.88;;;;;;;8.60;100.00;97884.69;5137436;28;20051;-64
2023/04/22 00:57:23;;;;;;;3.15;2.38;;;;;;;8.57;100.00;97898.34;5137109;28;20391;-62
2023/04/22 00:59:50;;;;;;;2.92;2.40;;;;;;;8.58;100.00;97892.47;5137369;27;20047;-65
2023/04/22 01:02:17;;;;;;;5.22;2.15;;;;;;;8.56;100.00;97888.56;5137246;28;20059;-59
2023/04/22 01:04:43;;;;;;;6.93;3.00;;;;;;;8.51;100.00;97892.44;5136852;27;20146;-63
2023/04/22 01:07:09;;;;;;;10.73;2.55;;;;;;;8.39;100.00;97890.78;5137241;28;20051;-62
2023/04/22 01:09:35;;;;;;;4.22;2.63;;;;;;;8.45;100.00;97892.00;5137044;28;20059;-61
2023/04/22 01:12:02;;;;;;;6.88;2.40;;;;;;;8.42;100.00;97890.03;5137047;27;20412;-61
2023/04/22 01:14:28;;;;;;;3.42;2.53;;;;;;;8.37;100.00;97897.78;5137102;28;20061;-63
2023/04/22 01:16:55;;;;;;;7.47;2.60;;;;;;;8.28;100.00;97889.16;5136867;27;20047;-65
2023/04/22 01:19:21;;;;;;;9.15;2.70;;;;;;;8.21;100.00;97896.13;5136753;28;20141;-64
2023/04/22 01:21:49;;;;;;;7.05;2.60;;;;;;;8.21;100.00;97892.63;5137142;28;20319;-62
2023/04/22 01:24:16;;;;;;;7.75;2.60;;;;;;;8.19;100.00;97898.44;5136729;27;20055;-61
2023/04/22 01:26:42;;;;;;;6.47;3.10;;;;;;;8.13;100.00;97899.19;5140760;27;20047;-61
2023/04/22 01:29:08;;;;;;;5.25;2.35;;;;;;;8.06;100.00;97894.44;5140484;28;20146;-66
2023/04/22 01:31:35;;;;;;;3.63;1.80;;;;;;;8.05;100.00;97903.03;5140153;28;20051;-62
2023/04/22 01:34:01;;;;;;;3.42;2.40;;;;;;;7.99;100.00;97905.31;5140211;28;20503;-64
2023/04/22 01:36:27;;;;;;;2.67;2.00;;;;;;;7.99;100.00;97914.28;5140240;27;20139;-63
2023/04/22 01:38:53;;;;;;;4.07;2.22;;;;;;;7.95;100.00;97910.75;5140138;28;20476;-64
2023/04/22 01:41:21;;;;;;;3.88;2.00;;;;;;;7.90;100.00;97907.59;5140165;28;20058;-65
2023/04/22 01:43:47;;;;;;;3.00;2.13;;;;;;;7.87;100.00;97908.34;5140380;27;20138;-62
2023/04/22 01:46:13;;;;;;;4.80;2.78;;;;;;;7.83;100.00;97921.97;5140059;28;20138;-63
2023/04/22 01:48:39;;;;;;;2.33;2.10;;;;;;;7.81;100.00;97916.09;5140368;28;20146;-64
2023/04/22 01:51:05;;;;;;;12.65;2.58;;;;;;;7.78;100.00;97925.03;5139957;28;20051;-63
2023/04/22 01:53:31;;;;;;;5.38;2.50;;;;;;;7.74;100.00;97919.53;5140237;28;20043;-65
2023/04/22 01:55:58;;;;;;;4.43;2.25;;;;;;;7.65;100.00;97924.53;5139697;28;20054;-63
2023/04/22 01:58:27;;;;;;;5.32;2.58;;;;;;;7.61;100.00;97920.97;5139813;27;20051;-63
2023/04/22 02:00:53;;;;;;;6.10;2.65;;;;;;;7.53;100.00;97933.78;5139707;28;20431;-61
2023/04/22 02:03:19;;;;;;;6.68;2.50;;;;;;;7.54;100.00;97931.81;5139523;28;20046;-61
2023/04/22 02:05:45;;;;;;;6.15;2.80;;;;;;;7.52;100.00;97942.31;5139945;27;20050;-64
2023/04/22 02:08:11;;;;;;;5.10;2.90;;;;;;;7.48;100.00;97944.22;5139724;28;20046;-63
2023/04/22 02:13:22;;;;;;;3.10;2.45;;;;;;;7.38;100.00;97942.94;5139622;27;20110;-63
2023/04/22 02:15:49;;;;;;;6.10;2.33;;;;;;;7.35;100.00;97959.28;5139979;28;20051;-61
2023/04/22 02:18:16;;;;;;;5.68;3.15;;;;;;;7.32;100.00;97969.75;5139359;28;20082;-64
2023/04/22 02:20:43;;;;;;;5.93;2.40;;;;;;;7.27;100.00;97986.47;5139875;27;20083;-64
2023/04/22 02:23:10;;;;;;;2.97;2.30;;;;;;;7.26;100.00;97987.63;5139638;27;20054;-64
2023/04/22 02:25:37;;;;;;;6.05;3.33;;;;;;;7.27;100.00;97986.47;5139307;27;20404;-64
2023/04/22 02:28:02;;;;;;;5.10;2.85;;;;;;;7.21;100.00;97982.47;5139600;28;20051;-61
2023/04/22 02:30:28;;;;;;;3.08;2.40;;;;;;;7.18;100.00;97996.84;5139448;28;20466;-61
2023/04/22 02:32:55;;;;;;;3.63;2.15;;;;;;;7.17;100.00;98011.66;5139541;28;20058;-61
2023/04/22 02:35:21;;;;;;;4.20;2.92;;;;;;;7.06;100.00;98022.41;5139070;27;20051;-61
2023/04/22 02:37:47;;;;;;;7.28;2.50;;;;;;;7.10;100.00;98024.38;5138582;27;20099;-61
2023/04/22 02:40:13;;;;;;;7.68;2.42;;;;;;;7.07;100.00;98018.53;5139097;28;20087;-63
2023/04/22 02:42:39;;;;;;;3.83;2.42;;;;;;;7.00;100.00;98039.44;5139485;28;20349;-64
2023/04/22 02:45:06;;;;;;;3.65;2.67;;;;;;;7.02;100.00;98035.19;5139073;28;20090;-64
2023/04/22 02:47:31;;;;;;;5.70;2.53;;;;;;;6.96;100.00;98047.56;5139402;27;20488;-62
2023/04/22 02:49:58;;;;;;;4.32;2.63;;;;;;;6.96;100.00;98047.56;5138936;28;20146;-62
2023/04/22 02:52:24;;;;;;;5.53;2.75;;;;;;;6.97;100.00;98065.50;5138822;28;20138;-62
2023/04/22 02:54:50;;;;;;;5.32;2.15;;;;;;;6.90;100.00;98062.66;5139094;28;20107;-61
2023/04/22 02:57:16;;;;;;;6.68;2.45;;;;;;;6.90;100.00;98070.03;5139002;28;20143;-62
2023/04/22 02:59:42;;;;;;;7.22;2.75;;;;;;;6.91;100.00;98077.84;5138792;27;20420;-63
2023/04/22 03:02:09;;;;;;;9.10;2.78;;;;;;;6.92;100.00;98084.09;5138797;28;20062;-63
2023/04/22 03:04:35;;;;;;;4.93;2.53;;;;;;;6.90;100.00;98089.91;5138880;28;20145;-61
2023/04/22 03:07:02;;;;;;;5.18;3.05;;;;;;;6.87;100.00;98095.31;5138743;27;20119;-64
2023/04/22 03:09:28;;;;;;;6.75;2.80;;;;;;;6.89;100.00;98096.50;5138860;28;20058;-64
2023/04/22 03:11:54;;;;;;;5.25;2.40;;;;;;;6.90;100.00;98092.63;5138716;28;20141;-65
2023/04/22 03:14:20;;;;;;;3.25;2.35;;;;;;;6.87;100.00;98092.59;5138927;27;20047;-63
2023/04/22 03:16:46;;;;;;;9.98;2.42;;;;;;;6.88;100.00;98100.38;5138560;28;20484;-62
2023/04/22 03:19:12;;;;;;;5.60;2.22;;;;;;;6.94;100.00;98093.47;5138881;28;20051;-62
2023/04/22 03:21:38;;;;;;;4.13;2.10;;;;;;;6.95;100.00;98095.03;5138354;27;20051;-61
2023/04/22 03:24:05;;;;;;;2.95;1.90;;;;;;;6.99;100.00;98082.25;5138585;28;20146;-61
2023/04/22 03:26:31;;;;;;;6.10;2.15;;;;;;;7.02;100.00;98097.06;5138672;28;20104;-64
2023/04/22 03:28:57;;;;;;;5.53;2.20;;;;;;;7.14;100.00;98085.97;5138524;28;20055;-64
2023/04/22 03:31:22;;;;;;;3.92;2.22;;;;;;;7.37;100.00;98066.03;5138571;28;20123;-64
2023/04/22 03:33:48;;;;;;;8.18;2.42;;;;;;;8.05;100.00;98029.34;5138383;28;20412;-64
2023/04/22 03:36:14;;;;;;;6.78;2.15;;;;;;;8.64;100.00;97942.06;5138491;27;20078;-63
2023/04/22 03:38:40;;;;;;;5.60;2.17;;;;;;;9.20;100.00;97891.56;5138078;28;20046;-62
2023/04/22 03:41:07;;;;;;;3.38;1.75;;;;;;;9.64;100.00;97924.09;5138855;28;20148;-61
2023/04/22 03:43:34;;;;;;;6.85;2.20;;;;;;;10.27;100.00;97995.75;5138443;28;20047;-62
2023/04/22 03:46:00;;;;;;;10.50;5.68;;;;;;;10.73;100.00;98057.19;5138536;27;20047;-63
2023/04/22 03:48:27;;;;;;;5.35;2.50;;;;;;;11.03;100.00;98134.34;5136721;27;20146;-64
2023/04/22 03:50:53;;;;;;;3.88;2.20;;;;;;;11.36;100.00;98180.94;5138426;28;20065;-63
2023/04/22 03:53:19;;;;;;;5.45;1.95;;;;;;;11.74;100.00;98239.72;5137842;28;20517;-63
2023/04/22 03:55:46;;;;;;;8.55;2.20;;;;;;;12.03;100.00;98278.94;5138111;28;20097;-61
2023/04/22 03:58:12;;;;;;;23.40;2.92;;;;;;;12.23;100.00;98317.75;5138050;28;20191;-63
2023/04/22 04:00:38;;;;;;;94.10;8.15;;;;;;;12.62;100.00;98347.84;5137987;27;20051;-65
2023/04/22 04:03:04;;;;;;;41.03;6.72;;;;;;;12.91;100.00;98367.78;5138097;28;20085;-64
2023/04/22 04:05:30;;;;;;;42.55;5.28;;;;;;;13.22;100.00;98400.25;5137601;27;20389;-62
2023/04/22 04:07:56;;;;;;;21.90;4.28;;;;;;;13.46;100.00;98429.66;5137976;28;20051;-62
2023/04/22 04:10:22;;;;;;;18.77;3.90;;;;;;;13.67;100.00;98453.53;5138110;28;20051;-62
2023/04/22 04:12:48;;;;;;;11.13;3.35;;;;;;;13.77;100.00;98473.94;5137624;27;20133;-62
2023/04/22 04:15:17;;;;;;;11.88;3.22;;;;;;;14.15;100.00;98493.38;5137474;28;20428;-62
2023/04/22 04:17:43;;;;;;;9.80;3.10;;;;;;;14.57;100.00;98514.34;5138106;28;20051;-62
2023/04/22 04:20:10;;;;;;;4.05;2.67;;;;;;;14.63;100.00;98528.47;5137334;27;20472;-62
2023/04/22 04:22:36;;;;;;;6.90;2.38;;;;;;;14.74;100.00;98532.72;5137668;28;20043;-62
2023/04/22 04:25:02;;;;;;;4.78;2.17;;;;;;;15.14;100.00;98541.38;5137620;28;20063;-66
2023/04/22 04:27:28;;;;;;;3.97;2.28;;;;;;;15.34;100.00;98555.38;5137365;28;20408;-62
2023/04/22 04:29:55;;;;;;;6.47;2.83;;;;;;;15.82;100.00;98582.06;5137443;28;20054;-65
2023/04/22 04:32:23;;;;;;;5.75;2.20;;;;;;;16.03;100.00;98581.03;5137316;28;20116;-62
2023/04/22 04:34:49;;;;;;;4.57;3.10;;;;;;;16.15;100.00;98579.66;5137523;27;20190;-66
2023/04/22 04:37:16;;;;;;;4.25;2.00;;;;;;;16.32;100.00;98589.69;5137401;28;20083;-67
2023/04/22 04:39:43;;;;;;;5.28;2.80;;;;;;;16.45;100.00;98595.41;5137536;28;20062;-64
2023/04/22 04:42:09;;;;;;;4.05;2.25;;;;;;;16.61;98.40;98601.09;5137234;28;20047;-62
2023/04/22 04:44:35;;;;;;;5.53;2.03;;;;;;;16.77;98.31;98594.97;5137628;27;20184;-64
2023/04/22 04:47:01;;;;;;;3.33;2.20;;;;;;;16.66;96.80;98613.69;5136948;27;20134;-66
2023/04/22 04:49:29;;;;;;;2.00;1.80;;;;;;;17.06;92.20;98613.84;5137363;28;20051;-64
2023/04/22 04:51:55;;;;;;;3.38;1.88;;;;;;;16.89;91.30;98618.47;5137288;28;20047;-65
2023/04/22 04:54:21;;;;;;;3.40;2.00;;;;;;;17.10;88.27;98623.69;5136855;28;20051;-64
2023/04/22 04:56:47;;;;;;;12.65;2.53;;;;;;;16.69;87.82;98623.91;5137275;27;20047;-63
2023/04/22 04:59:13;;;;;;;6.28;1.90;;;;;;;17.13;92.86;98606.22;5136890;27;20080;-62
2023/04/22 05:01:39;;;;;;;3.97;2.17;;;;;;;17.49;87.16;98618.63;5140798;28;20053;-62
2023/04/22 05:04:05;;;;;;;5.78;2.90;;;;;;;18.08;86.66;98618.66;5140785;28;20112;-63
2023/04/22 05:06:31;;;;;;;7.40;2.67;;;;;;;17.99;85.76;98624.00;5140837;27;20127;-64
2023/04/22 05:08:57;;;;;;;2.05;1.85;;;;;;;18.26;82.42;98632.16;5140599;27;20054;-64
2023/04/22 05:11:23;;;;;;;4.63;2.20;;;;;;;18.35;81.26;98632.34;5140994;27;20060;-65
2023/04/22 05:13:49;;;;;;;4.50;2.20;;;;;;;18.62;78.62;98638.88;5140628;28;20047;-62
2023/04/22 05:16:15;;;;;;;4.65;2.25;;;;;;;19.26;76.96;98634.59;5140927;28;20264;-62
2023/04/22 05:18:41;;;;;;;8.35;2.65;;;;;;;19.57;75.33;98645.31;5140299;28;20483;-61
2023/04/22 05:21:07;;;;;;;2.80;2.17;;;;;;;19.49;74.33;98645.50;5140529;28;20192;-61
2023/04/22 05:23:33;;;;;;;4.38;2.20;;;;;;;19.81;73.18;98646.63;5140565;27;20114;-63
2023/04/22 05:25:59;;;;;;;3.17;2.00;;;;;;;20.13;72.96;98650.53;5140274;27;20111;-61
2023/04/22 05:28:25;;;;;;;6.05;2.13;;;;;;;19.88;72.10;98652.00;5140511;28;20142;-65
2023/04/22 05:30:51;;;;;;;11.40;2.50;;;;;;;20.30;71.81;98659.56;5140388;28;20074;-65
2023/04/22 05:33:17;;;;;;;9.80;2.55;;;;;;;20.76;69.87;98660.16;5140347;27;20446;-65
2023/04/22 05:35:43;;;;;;;4.47;2.80;;;;;;;20.88;67.48;98659.41;5140239;27;20141;-65
2023/04/22 05:38:09;;;;;;;20.75;2.80;;;;;;;21.20;67.82;98663.16;5140523;28;20065;-63
2023/04/22 05:40:36;;;;;;;14.30;2.75;;;;;;;21.07;66.95;98666.75;5139857;28;20092;-65
2023/04/22 05:43:02;;;;;;;8.57;2.60;;;;;;;21.37;66.70;98667.38;5140452;28;20480;-64
2023/04/22 05:45:29;;;;;;;9.68;2.42;;;;;;;21.54;64.69;98670.78;5139934;28;20066;-64
2023/04/22 05:47:54;;;;;;;5.82;2.15;;;;;;;21.57;65.19;98669.88;5140364;28;20328;-65
2023/04/22 05:50:20;;;;;;;8.43;3.20;;;;;;;21.35;65.37;98664.25;5140157;27;20082;-65
2023/04/22 05:52:46;;;;;;;6.60;2.58;;;;;;;21.86;64.46;98666.88;5140059;28;20103;-65
2023/04/22 05:55:12;;;;;;;8.63;2.80;;;;;;;22.05;64.11;98667.78;5140153;28;20134;-63
2023/04/22 05:57:39;;;;;;;5.78;2.45;;;;;;;22.22;63.01;98673.97;5139976;28;20051;-62
2023/04/22 06:00:06;;;;;;;7.60;2.30;;;;;;;22.60;63.07;98664.56;5140043;28;20051;-63
2023/04/22 06:02:32;;;;;;;7.38;2.72;;;;;;;22.52;62.56;98664.81;5139790;28;20136;-64
2023/04/22 06:04:58;;;;;;;22.10;2.63;;;;;;;23.15;62.01;98671.13;5139811;27;20463;-66
2023/04/22 06:07:23;;;;;;;13.98;3.80;;;;;;;22.82;61.25;98676.44;5139556;28;20047;-66
2023/04/22 06:09:50;;;;;;;13.20;3.60;;;;;;;23.70;59.00;98670.47;5139963;28;20055;-65
2023/04/22 06:12:16;;;;;;;8.23;3.25;;;;;;;23.90;58.83;98679.16;5138353;27;20050;-65
2023/04/22 06:14:42;;;;;;;16.45;3.80;;;;;;;23.44;58.71;98667.94;5139960;27;20409;-66
2023/04/22 06:17:08;;;;;;;8.93;3.58;;;;;;;23.75;57.93;98677.44;5139459;27;20047;-65
2023/04/22 06:19:34;;;;;;;13.32;3.95;;;;;;;23.66;58.22;98675.41;5139563;28;20091;-66
2023/04/22 06:22:00;;;;;;;6.05;2.70;;;;;;;23.78;58.65;98670.94;5140050;28;20059;-65
2023/04/22 06:24:26;;;;;;;12.07;3.78;;;;;;;23.78;57.52;98670.94;5139644;28;20294;-63
2023/04/22 06:26:52;;;;;;;16.85;2.80;;;;;;;23.49;58.33;98672.91;5139586;28;20142;-64
2023/04/22 06:29:18;;;;;;;15.10;3.80;;;;;;;23.86;58.06;98674.97;5139229;28;20054;-62
2023/04/22 06:31:44;;;;;;;12.02;3.40;;;;;;;24.42;56.37;98680.06;5139289;27;20093;-63
2023/04/22 06:34:10;;;;;;;9.60;3.42;;;;;;;24.34;56.17;98680.81;5139229;28;20138;-61
2023/04/22 06:36:37;;;;;;;11.90;3.35;;;;;;;24.67;56.42;98677.34;5139391;27;20138;-61
2023/04/22 06:39:04;;;;;;;10.98;3.30;;;;;;;24.77;55.53;98682.44;5138990;28;20043;-63
2023/04/22 06:41:30;;;;;;;7.32;2.75;;;;;;;24.56;55.32;98683.44;5139482;28;20050;-65
2023/04/22 06:43:56;;;;;;;8.82;2.10;;;;;;;24.20;55.09;98679.44;5139033;28;20393;-62
2023/04/22 06:46:22;;;;;;;10.93;3.00;;;;;;;24.80;54.88;98677.91;5139336;27;20057;-63
2023/04/22 06:48:48;;;;;;;7.40;3.10;;;;;;;25.19;53.93;98683.66;5138827;28;20059;-62
2023/04/22 06:51:14;;;;;;;7.78;3.17;;;;;;;25.27;53.36;98684.84;5138892;28;20057;-63
2023/04/22 06:53:40;;;;;;;10.68;2.92;;;;;;;25.33;53.79;98688.56;5139082;28;20137;-63
2023/04/22 06:56:07;;;;;;;6.95;2.70;;;;;;;25.64;52.25;98685.38;5139038;28;20133;-64
2023/04/22 06:58:33;;;;;;;6.68;2.75;;;;;;;25.51;52.20;98688.44;5139069;27;20138;-63
2023/04/22 07:00:59;;;;;;;3.15;2.00;;;;;;;25.46;51.47;98683.50;5138898;28;20471;-64
2023/04/22 07:03:24;;;;;;;6.07;1.90;;;;;;;25.44;50.43;98677.56;5139035;28;20054;-66
2023/04/22 07:05:51;;;;;;;9.07;6.03;;;;;;;25.31;49.89;98680.63;5138588;27;20139;-67
2023/04/22 07:08:18;;;;;;;6.10;2.00;;;;;;;25.47;51.22;98682.22;5138959;28;20438;-66
2023/04/22 07:10:44;;;;;;;6.80;2.30;;;;;;;25.65;51.36;98683.34;5138583;28;20139;-60
2023/04/22 07:13:10;;;;;;;6.93;2.42;;;;;;;25.24;50.16;98688.63;5138912;27;20043;-62
2023/04/22 07:15:36;;;;;;;9.43;2.20;;;;;;;25.34;50.28;98676.09;5138375;28;20138;-62
2023/04/22 07:18:02;;;;;;;6.30;1.90;;;;;;;25.76;49.75;98681.56;5138657;28;20043;-63
2023/04/22 07:20:28;;;;;;;12.98;2.50;;;;;;;25.96;48.78;98685.78;5138639;28;20055;-65
2023/04/22 07:22:54;;;;;;;5.10;2.00;;;;;;;25.80;48.61;98676.56;5138385;27;20050;-65
2023/04/22 07:25:20;;;;;;;4.07;2.13;;;;;;;24.09;49.94;98679.94;5138671;28;20061;-65
2023/04/22 07:27:46;;;;;;;3.78;2.10;;;;;;;25.03;49.92;98684.81;5138505;28;20072;-65
2023/04/22 07:30:12;;;;;;;3.58;2.03;;;;;;;25.10;48.93;98679.63;5138619;28;20435;-67
2023/04/22 07:32:38;;;;;;;3.45;1.67;;;;;;;25.61;48.95;98677.91;5138346;28;20051;-64
2023/04/22 07:35:05;;;;;;;11.45;1.80;;;;;;;26.31;47.99;98679.53;5138560;27;20047;-66
2023/04/22 07:37:31;;;;;;;5.47;1.80;;;;;;;26.23;46.99;98677.09;5138258;28;20055;-62
2023/04/22 07:39:58;;;;;;;1.98;1.58;;;;;;;26.74;47.06;98678.75;5138491;28;20187;-61
2023/04/22 07:42:24;;;;;;;5.18;1.80;;;;;;;26.87;47.19;98674.84;5138014;27;20130;-62
2023/04/22 07:44:50;;;;;;;4.50;2.08;;;;;;;26.18;48.21;98672.13;5138446;27;20373;-62
2023/04/22 07:47:16;;;;;;;3.15;1.50;;;;;;;24.82;48.03;98678.97;5138217;28;20051;-61
2023/04/22 07:49:42;;;;;;;6.97;1.98;;;;;;;23.28;50.47;98678.63;5138171;28;20051;-65
2023/04/22 07:52:08;;;;;;;1.80;1.70;;;;;;;22.52;51.51;98672.41;5137957;28;20397;-63
2023/04/22 07:54:34;;;;;;;8.80;2.55;;;;;;;23.01;52.61;98674.50;5137857;28;20043;-62
2023/04/22 07:57:00;;;;;;;5.45;1.92;;;;;;;23.92;50.89;98676.66;5138007;28;20047;-61
2023/04/22 07:59:26;;;;;;;5.35;1.77;;;;;;;23.21;50.40;98668.50;5137673;28;20066;-62
2023/04/22 08:01:52;;;;;;;3.90;1.67;;;;;;;22.38;51.28;98673.75;5138153;27;20134;-62
2023/04/22 08:04:21;;;;;;;4.30;1.63;;;;;;;22.08;52.14;98672.44;5137697;28;20057;-64
2023/04/22 08:06:47;;;;;;;4.35;1.73;;;;;;;20.62;55.99;98673.31;5138073;27;20047;-62
2023/04/22 08:09:13;;;;;;;3.13;1.58;;;;;;;20.83;56.38;98673.91;5137573;28;20103;-62
2023/04/22 08:11:39;;;;;;;4.95;1.88;;;;;;;19.99;59.05;98671.16;5137924;28;20134;-62
2023/04/22 08:14:05;;;;;;;3.95;1.90;;;;;;;20.16;58.75;98671.91;5137432;28;20053;-64
2023/04/22 08:16:31;;;;;;;2.08;1.63;;;;;;;20.39;57.97;98676.38;5137796;27;20324;-64
2023/04/22 08:18:57;;;;;;;9.48;3.67;;;;;;;20.58;57.54;98677.44;5137716;27;20377;-65
2023/04/22 08:21:23;;;;;;;9.25;1.95;;;;;;;20.24;61.72;98669.69;5137397;28;20142;-65
2023/04/22 08:23:49;;;;;;;10.48;3.53;;;;;;;21.48;60.11;98676.16;5137387;27;20058;-63
2023/04/22 08:26:15;;;;;;;3.63;2.13;;;;;;;22.07;58.71;98665.31;5137370;28;20079;-63
2023/04/22 08:28:42;;;;;;;9.13;2.35;;;;;;;22.95;57.63;98667.97;5137630;28;20133;-63
2023/04/22 08:31:09;;;;;;;5.70;1.85;;;;;;;22.33;57.26;98665.97;5137445;28;20332;-61
2023/04/22 08:33:35;;;;;;;6.90;1.85;;;;;;;22.07;57.16;98680.03;5137678;28;20216;-66
2023/04/22 08:36:02;;;;;;;1.98;1.30;;;;;;;21.70;56.93;98679.00;5136401;27;20404;-64
2023/04/22 08:38:28;;;;;;;7.75;1.55;;;;;;;20.63;58.97;98672.13;5137537;28;20111;-65
2023/04/22 08:40:55;;;;;;;6.28;1.30;;;;;;;19.86;61.68;98676.72;5136783;27;20058;-62
2023/04/22 08:43:21;;;;;;;8.18;1.98;;;;;;;19.39;63.60;98671.56;5137085;27;20055;-65
2023/04/22 08:45:48;;;;;;;6.45;1.75;;;;;;;18.98;66.03;98672.97;5137376;27;20047;-60
2023/04/22 08:48:15;;;;;;;2.75;1.35;;;;;;;18.65;67.93;98666.56;5136965;28;20073;-64
2023/04/22 08:50:41;;;;;;;3.85;1.30;;;;;;;18.74;67.62;98675.13;5137345;28;20050;-62
2023/04/22 08:53:07;;;;;;;6.10;1.95;;;;;;;18.43;68.57;98668.28;5137531;27;20130;-62
2023/04/22 08:55:34;;;;;;;6.18;1.88;;;;;;;18.44;69.07;98672.59;5137544;28;20141;-60
2023/04/22 08:58:02;;;;;;;6.57;1.70;;;;;;;18.40;68.99;98663.59;5136845;28;20047;-65
2023/04/22 09:00:29;;;;;;;8.27;1.90;;;;;;;18.39;69.82;98665.56;5137121;28;20054;-60
2023/04/22 09:02:56;;;;;;;5.45;1.63;;;;;;;18.03;71.69;98663.53;5136885;28;20047;-65
2023/04/22 09:05:25;;;;;;;3.70;1.60;;;;;;;17.95;73.13;98653.78;5137076;27;20061;-63
2023/04/22 09:07:51;;;;;;;8.73;1.88;;;;;;;18.05;73.20;98649.25;5136944;28;20134;-65
2023/04/22 09:10:17;;;;;;;2.60;1.27;;;;;;;18.28;71.60;98653.91;5137290;28;20161;-63
2023/04/22 09:12:44;;;;;;;3.47;1.50;;;;;;;18.48;70.90;98649.09;5136790;28;20047;-64
2023/04/22 09:15:11;;;;;;;2.80;1.50;;;;;;;18.49;69.95;98650.69;5136956;28;20355;-63
2023/04/22 09:17:37;;;;;;;7.07;1.90;;;;;;;18.30;69.33;98652.28;5136683;27;20173;-59
2023/04/22 09:20:05;;;;;;;2.35;1.08;;;;;;;18.41;70.30;98648.50;5136853;28;20142;-64
2023/04/22 09:22:39;;;;;;;5.60;1.27;;;;;;;18.53;68.93;98650.59;5136965;27;20050;-64
2023/04/22 09:25:05;;;;;;;2.42;1.35;;;;;;;18.80;67.27;98647.63;5136839;27;20130;-62
2023/04/22 09:27:32;;;;;;;15.30;3.17;;;;;;;18.99;66.13;98651.53;5137047;27;20134;-65
2023/04/22 09:29:58;;;;;;;2.50;1.52;;;;;;;19.21;65.40;98652.56;5136566;28;20111;-61
2023/04/22 09:32:24;;;;;;;4.13;1.75;;;;;;;19.31;64.08;98658.28;5136939;27;20047;-60
2023/04/22 09:34:52;;;;;;;3.05;1.27;;;;;;;19.46;64.05;98654.72;5136410;27;20051;-62
2023/04/22 09:37:20;;;;;;;2.45;1.30;;;;;;;19.69;62.58;98656.50;5136836;28;20058;-61
2023/04/22 09:39:48;;;;;;;5.80;1.10;;;;;;;19.93;60.73;98656.25;5136191;27;20066;-60
2023/04/22 09:42:14;;;;;;;2.13;1.30;;;;;;;19.97;59.75;98657.72;5136332;28;20047;-61
2023/04/22 09:44:40;;;;;;;1.50;0.93;;;;;;;20.08;59.13;98662.19;5136239;28;20111;-61
2023/04/22 09:47:07;;;;;;;1.88;1.05;;;;;;;20.05;57.31;98668.63;5138990;27;20090;-65
2023/04/22 09:49:36;;;;;;;0.63;0.63;;;;;;;20.20;55.97;98667.00;5139910;28;20054;-63
2023/04/22 09:52:02;;;;;;;2.38;0.70;;;;;;;20.06;56.34;98664.63;5139927;28;20051;-66
2023/04/22 09:54:28;;;;;;;5.05;1.00;;;;;;;20.58;55.46;98658.72;5139865;28;20071;-65
2023/04/22 09:56:55;;;;;;;12.55;2.42;;;;;;;20.89;55.37;98658.97;5139695;28;20082;-65
2023/04/22 09:59:22;;;;;;;1.55;1.00;;;;;;;21.71;54.86;98658.22;5139938;27;20099;-64
2023/04/22 10:01:51;;;;;;;1.65;1.50;;;;;;;22.04;53.95;98658.63;5139407;28;20395;-64
2023/04/22 10:04:20;;;;;;;1.48;1.10;;;;;;;21.60;53.94;98647.44;5140044;28;20093;-64
2023/04/22 10:06:46;;;;;;;2.55;1.05;;;;;;;20.54;54.81;98652.50;5140064;27;20055;-64
2023/04/22 10:09:12;;;;;;;2.22;1.10;;;;;;;21.31;55.60;98646.84;5139913;28;20063;-62
2023/04/22 10:11:40;;;;;;;1.50;1.40;;;;;;;21.96;54.30;98650.94;5139763;28;20370;-63
2023/04/22 10:14:09;;;;;;;2.38;1.30;;;;;;;22.87;53.42;98645.09;5139506;28;20053;-64
2023/04/22 10:16:37;;;;;;;6.38;2.00;;;;;;;23.05;52.18;98640.81;5139851;28;20051;-65
2023/04/22 10:19:06;;;;;;;2.08;1.70;;;;;;;23.09;53.32;98639.44;5139396;28;20059;-67
2023/04/22 10:21:33;;;;;;;13.63;2.20;;;;;;;24.52;51.36;98640.78;5139798;28;20058;-65
2023/04/22 10:24:00;;;;;;;2.95;1.95;;;;;;;24.81;49.45;98643.00;5139419;28;20047;-60
2023/04/22 10:26:39;;;;;;;5.75;1.77;;;;;;;25.27;49.12;98651.19;5139775;28;20377;-61
2023/04/22 10:29:06;;;;;;;8.98;2.20;;;;;;;25.15;48.82;98638.94;5139210;28;20088;-63
2023/04/22 10:31:32;;;;;;;4.65;2.25;;;;;;;25.44;47.91;98638.28;5139533;28;20051;-61
2023/04/22 10:34:09;;;;;;;5.50;1.90;;;;;;;25.17;48.32;98639.25;5139180;28;20070;-59
2023/04/22 10:36:51;;;;;;;6.45;2.17;;;;;;;23.80;47.83;98640.47;5139334;27;20066;-61
2023/04/22 10:39:17;;;;;;;2.22;1.55;;;;;;;22.25;50.10;98633.97;5139304;28;20079;-61
2023/04/22 10:41:55;;;;;;;2.78;1.88;;;;;;;21.91;51.09;98637.59;5139137;28;20427;-64
2023/04/22 10:44:22;;;;;;;1.98;1.42;;;;;;;21.40;51.67;98638.59;5139512;28;20057;-65
2023/04/22 10:47:00;;;;;;;6.82;1.70;;;;;;;20.89;52.69;98638.66;5139125;27;20502;-62
2023/04/22 10:49:29;;;;;;;3.47;1.67;;;;;;;20.39;53.37;98634.63;5139395;27;20063;-61
2023/04/22 10:51:57;;;;;;;4.93;1.58;;;;;;;20.71;52.81;98632.88;5139274;28;20043;-62
2023/04/22 10:55:01;;;;;;;3.53;1.70;;;;;;;20.11;53.97;98636.25;5139104;28;20067;-63
2023/04/22 10:57:37;;;;;;;3.10;1.60;;;;;;;19.54;55.58;98627.50;5138347;27;20082;-65
2023/04/22 11:00:21;;;;;;;2.72;1.60;;;;;;;19.85;53.82;98635.41;5138683;28;20079;-62
2023/04/22 11:02:52;;;;;;;5.47;1.17;;;;;;;20.14;53.31;98627.81;5139247;28;20047;-63
2023/04/22 11:05:19;;;;;;;9.30;1.83;;;;;;;19.73;54.92;98626.59;5138967;27;20369;-64
2023/04/22 11:07:46;;;;;;;1.33;1.23;;;;;;;20.04;54.31;98631.69;5138947;28;20058;-64
2023/04/22 11:10:31;;;;;;;2.35;1.38;;;;;;;19.96;54.29;98630.34;5138960;28;20141;-63
2023/04/22 11:12:57;;;;;;;2.42;1.40;;;;;;;20.13;53.47;98628.25;5138760;28;20079;-64
2023/04/22 11:15:23;;;;;;;3.30;1.10;;;;;;;20.41;54.08;98623.84;5138987;28;20049;-61
2023/04/22 11:17:52;;;;;;;6.47;1.45;;;;;;;20.26;53.06;98631.03;5138490;28;20137;-61
2023/04/22 11:20:18;;;;;;;2.33;1.75;;;;;;;20.73;52.68;98627.66;5138869;28;20054;-61
2023/04/22 11:22:45;;;;;;;7.10;1.40;;;;;;;20.94;52.80;98626.97;5138436;28;20420;-60
2023/04/22 11:25:11;;;;;;;1.63;1.20;;;;;;;19.99;51.54;98629.44;5138923;28;20054;-63
2023/04/22 11:27:38;;;;;;;2.13;1.15;;;;;;;20.08;51.63;98612.88;5139335;27;20043;-59
2023/04/22 11:30:07;;;;;;;3.97;1.52;;;;;;;19.86;51.71;98623.88;5139360;27;20051;-63
2023/04/22 11:32:34;;;;;;;3.58;1.83;;;;;;;20.04;51.78;98615.00;5138524;27;20116;-64